Time;durP1;ratioP1;P1;durP2;ratioP2;P2;SDS_P1;SDS_P2;PMS_P1;PMS_P2;Temp;Humidity;BMP_temperature;BMP_pressure;BME280_temperature;BME280_humidity;BME280_pressure;Samples;Min_cycle;Max_cycle;Signal;HPM_P1;HPM_P2
2024/02/18 00:01:32;;;;;;;13.75;9.60;;;;;;;12.64;63.87;101612.22;4148081;28;20558;-70
2024/02/18 00:03:33;;;;;;;10.85;8.35;;;;;;;12.74;63.50;101602.47;4147386;28;20054;-71
2024/02/18 00:05:34;;;;;;;11.32;8.52;;;;;;;12.71;63.67;101612.59;4147675;28;20108;-71
2024/02/18 00:07:35;;;;;;;13.15;8.95;;;;;;;12.67;63.85;101601.25;4148073;28;20045;-71
2024/02/18 00:09:36;;;;;;;11.30;8.35;;;;;;;12.58;64.11;101605.50;4147795;28;20025;-71
2024/02/18 00:11:36;;;;;;;14.23;9.10;;;;;;;12.60;63.93;101595.50;4148867;28;20048;-70
2024/02/18 00:13:37;;;;;;;11.63;8.77;;;;;;;12.62;63.77;101600.72;4148517;28;20034;-71
2024/02/18 00:15:38;;;;;;;11.32;7.97;;;;;;;12.63;63.67;101600.63;4149777;28;20064;-70
2024/02/18 00:17:38;;;;;;;12.88;8.77;;;;;;;12.69;63.68;101598.44;4153802;28;20077;-71
2024/02/18 00:19:39;;;;;;;11.85;8.27;;;;;;;12.71;63.67;101597.31;4157555;28;20067;-71
2024/02/18 00:21:39;;;;;;;11.93;8.32;;;;;;;12.70;63.39;101595.66;4159429;28;20469;-70
2024/02/18 00:23:40;;;;;;;12.90;8.85;;;;;;;12.58;63.94;101604.66;4157592;28;20038;-71
2024/02/18 00:25:40;;;;;;;12.88;8.52;;;;;;;12.59;64.21;101603.69;4156830;28;20036;-70
2024/02/18 00:27:41;;;;;;;12.52;8.85;;;;;;;12.59;63.84;101606.38;4150177;28;20570;-70
2024/02/18 00:29:42;;;;;;;12.68;7.85;;;;;;;12.64;63.67;101605.03;4149054;28;20454;-70
2024/02/18 00:31:42;;;;;;;12.73;8.55;;;;;;;12.66;63.72;101596.84;4147999;28;20048;-70
2024/02/18 00:33:43;;;;;;;14.35;8.68;;;;;;;12.61;63.83;101597.22;4147450;28;20145;-70
2024/02/18 00:35:43;;;;;;;11.07;8.23;;;;;;;12.52;63.92;101584.53;4147733;28;20033;-71
2024/02/18 00:37:43;;;;;;;13.32;8.10;;;;;;;12.49;64.19;101598.16;4147406;28;20029;-70
2024/02/18 00:39:44;;;;;;;12.23;8.10;;;;;;;12.49;64.24;101592.78;4147503;28;20034;-71
2024/02/18 00:41:45;;;;;;;13.93;7.93;;;;;;;12.53;64.02;101594.28;4147618;28;20026;-70
2024/02/18 00:43:45;;;;;;;11.02;7.55;;;;;;;12.52;64.06;101587.19;4147605;28;20152;-70
2024/02/18 00:45:46;;;;;;;11.73;8.10;;;;;;;12.39;64.16;101587.31;4147574;28;20050;-71
2024/02/18 00:47:46;;;;;;;9.45;6.70;;;;;;;12.35;64.55;101585.81;4147687;28;20030;-71
2024/02/18 00:49:48;;;;;;;10.70;6.75;;;;;;;12.50;64.04;101593.66;4147664;28;20806;-70
2024/02/18 00:51:48;;;;;;;10.77;7.53;;;;;;;12.64;63.49;101583.56;4147888;28;20042;-70
2024/02/18 00:53:49;;;;;;;9.88;6.45;;;;;;;12.57;63.69;101576.94;4147359;28;20112;-70
2024/02/18 00:55:49;;;;;;;15.32;6.50;;;;;;;12.52;63.79;101580.97;4147093;28;20030;-70
2024/02/18 00:57:49;;;;;;;10.32;7.15;;;;;;;12.42;63.84;101581.69;4147524;28;20378;-70
2024/02/18 00:59:50;;;;;;;10.57;6.97;;;;;;;12.27;64.08;101583.75;4147394;28;20057;-70
2024/02/18 01:01:51;;;;;;;9.57;6.88;;;;;;;12.25;64.30;101574.97;4147760;28;20026;-71
2024/02/18 01:03:51;;;;;;;8.23;5.90;;;;;;;12.29;64.10;101575.59;4146979;28;20138;-70
2024/02/18 01:05:51;;;;;;;9.27;5.88;;;;;;;12.27;63.84;101581.06;4146593;28;20029;-71
2024/02/18 01:07:52;;;;;;;8.60;6.03;;;;;;;12.24;64.18;101577.75;4147236;28;20048;-71
2024/02/18 01:09:53;;;;;;;9.35;6.38;;;;;;;12.26;63.82;101586.53;4147071;28;20030;-71
2024/02/18 01:11:54;;;;;;;9.50;6.10;;;;;;;12.15;64.26;101579.34;4147070;28;20018;-71
2024/02/18 01:13:54;;;;;;;9.85;6.15;;;;;;;12.22;63.99;101583.25;4147053;28;20041;-71
2024/02/18 01:15:55;;;;;;;9.93;5.90;;;;;;;12.29;63.80;101575.59;4146702;28;20037;-71
2024/02/18 01:17:55;;;;;;;9.90;6.35;;;;;;;12.29;63.87;101576.41;4146831;28;20176;-71
2024/02/18 01:19:57;;;;;;;12.37;6.43;;;;;;;12.12;64.46;101576.88;4146896;28;20545;-71
2024/02/18 01:21:58;;;;;;;9.13;6.75;;;;;;;12.15;64.04;101576.66;4147070;28;20348;-71
2024/02/18 01:23:58;;;;;;;10.00;6.63;;;;;;;12.23;64.15;101574.22;4146932;28;20117;-71
2024/02/18 01:25:58;;;;;;;8.38;5.97;;;;;;;12.19;64.01;101578.09;4146953;28;20064;-71
2024/02/18 01:27:59;;;;;;;8.88;5.80;;;;;;;12.19;64.25;101583.47;4147123;28;20494;-71
2024/02/18 01:30:00;;;;;;;12.20;7.57;;;;;;;12.08;64.51;101575.41;4147556;28;20037;-71
2024/02/18 01:32:00;;;;;;;10.30;5.90;;;;;;;12.08;64.32;101578.09;4147376;28;20308;-71
2024/02/18 01:34:00;;;;;;;12.38;6.82;;;;;;;12.13;64.10;101568.72;4147382;28;20466;-71
2024/02/18 01:36:01;;;;;;;8.27;5.80;;;;;;;12.20;63.97;101569.09;4147421;28;20605;-71
2024/02/18 01:38:02;;;;;;;8.43;5.85;;;;;;;12.30;63.65;101566.56;4146572;28;20574;-71
2024/02/18 01:40:03;;;;;;;9.60;4.90;;;;;;;12.31;63.60;101573.66;4148341;28;20069;-72
2024/02/18 01:42:03;;;;;;;;;;;;;;;12.31;63.67;101569.13;4149086;28;20493;-71
2024/02/18 01:44:04;;;;;;;8.90;5.20;;;;;;;12.25;63.78;101561.56;4148877;28;19913;-71
2024/02/18 01:46:04;;;;;;;8.52;5.72;;;;;;;12.10;64.27;101560.03;4149460;28;20542;-71
2024/02/18 01:48:05;;;;;;;7.40;5.60;;;;;;;12.07;64.24;101555.78;4154044;28;20029;-71
2024/02/18 01:50:08;;;;;;;8.93;5.82;;;;;;;12.10;64.12;101554.69;4163028;28;20034;-71
2024/02/18 01:52:09;;;;;;;8.73;6.10;;;;;;;12.09;64.19;101553.00;4163200;28;20030;-72
2024/02/18 01:54:10;;;;;;;7.85;5.72;;;;;;;12.01;64.54;101556.25;4163234;28;20093;-71
2024/02/18 01:56:13;;;;;;;8.27;5.63;;;;;;;11.98;64.75;101562.72;4163668;28;20030;-72
2024/02/18 01:58:14;;;;;;;10.20;6.82;;;;;;;11.96;64.69;101566.44;4167802;28;20032;-71
2024/02/18 02:00:17;;;;;;;8.00;5.55;;;;;;;11.94;64.71;101560.34;4166786;28;20579;-71
2024/02/18 02:02:18;;;;;;;10.55;6.68;;;;;;;11.99;64.70;101567.09;4162580;28;20052;-71
2024/02/18 02:04:18;;;;;;;8.55;5.72;;;;;;;11.93;64.80;101564.84;4152320;28;20495;-71
2024/02/18 02:06:21;;;;;;;8.57;6.18;;;;;;;11.91;64.86;101558.75;4150586;28;20022;-72
2024/02/18 02:08:22;;;;;;;8.77;5.82;;;;;;;11.83;65.02;101562.03;4150974;28;20402;-71
2024/02/18 02:10:23;;;;;;;11.70;5.85;;;;;;;11.86;64.94;101559.09;4148214;28;20026;-71
2024/02/18 02:12:24;;;;;;;9.93;5.90;;;;;;;11.90;64.76;101559.75;4149806;28;20033;-71
2024/02/18 02:14:24;;;;;;;8.35;6.07;;;;;;;11.87;64.66;101549.25;4149731;28;20030;-71
2024/02/18 02:16:25;;;;;;;9.18;5.40;;;;;;;11.97;64.50;101555.66;4149568;28;20118;-71
2024/02/18 02:18:25;;;;;;;9.60;5.20;;;;;;;12.05;64.26;101556.88;4149594;28;20056;-70
2024/02/18 02:20:27;;;;;;;7.63;4.70;;;;;;;12.12;63.77;101553.63;4148996;28;20033;-71
2024/02/18 02:22:27;;;;;;;9.18;5.35;;;;;;;12.01;64.16;101540.19;4149945;28;20518;-71
2024/02/18 02:24:28;;;;;;;9.23;4.72;;;;;;;12.09;63.71;101537.75;4148932;28;20076;-72
2024/02/18 02:26:33;;;;;;;6.40;4.47;;;;;;;12.24;63.38;101534.84;4149405;28;20022;-71
2024/02/18 02:28:39;;;;;;;6.95;4.28;;;;;;;12.17;63.33;101531.81;4149519;28;20072;-71
2024/02/18 02:30:40;;;;;;;7.78;5.25;;;;;;;12.16;63.20;101536.31;4149013;28;20028;-71
2024/02/18 02:32:42;;;;;;;8.50;4.63;;;;;;;12.22;63.19;101531.47;4149086;28;20026;-71
2024/02/18 02:34:43;;;;;;;6.55;3.92;;;;;;;12.29;62.75;101528.16;4148971;28;20026;-72
2024/02/18 02:36:43;;;;;;;7.05;4.30;;;;;;;12.22;62.97;101524.25;4149735;28;20032;-71
2024/02/18 02:38:44;;;;;;;6.90;4.55;;;;;;;12.35;62.60;101539.41;4146322;28;20065;-71
2024/02/18 02:40:44;;;;;;;5.35;3.83;;;;;;;12.36;62.41;101522.34;4142157;28;20026;-71
2024/02/18 02:42:45;;;;;;;5.63;4.00;;;;;;;12.37;62.60;101532.09;4147598;28;20030;-71
2024/02/18 02:44:46;;;;;;;;;;;;;;;12.38;61.87;101521.25;4133110;28;20617;-71
2024/02/18 02:46:46;;;;;;;8.30;4.17;;;;;;;12.23;62.77;101528.66;4136260;28;19910;-71
2024/02/18 02:48:47;;;;;;;7.15;4.40;;;;;;;12.20;62.70;101528.88;4139203;28;20038;-71
2024/02/18 02:50:48;;;;;;;7.35;4.97;;;;;;;12.17;62.83;101529.97;4143335;28;20262;-71
2024/02/18 02:52:49;;;;;;;7.55;5.60;;;;;;;12.08;63.25;101529.84;4148847;28;20081;-71
2024/02/18 02:54:49;;;;;;;10.93;5.35;;;;;;;12.01;63.42;101532.13;4136741;28;20022;-71
2024/02/18 02:56:50;;;;;;;7.40;5.25;;;;;;;11.96;63.34;101531.59;4132682;28;20580;-71
2024/02/18 02:58:51;;;;;;;8.63;5.18;;;;;;;12.02;63.27;101528.50;4132785;28;20383;-71
2024/02/18 03:00:51;;;;;;;8.38;5.60;;;;;;;11.96;63.31;101532.47;4132160;28;20027;-71
2024/02/18 03:02:52;;;;;;;8.32;5.72;;;;;;;11.86;63.83;101531.47;4132182;28;20053;-71
2024/02/18 03:04:53;;;;;;;9.48;6.53;;;;;;;11.81;64.00;101533.63;4132464;28;20048;-71
2024/02/18 03:06:54;;;;;;;9.05;6.45;;;;;;;11.75;64.43;101528.72;4131793;28;20142;-71
2024/02/18 03:08:54;;;;;;;9.00;6.60;;;;;;;11.69;64.64;101528.25;4132182;28;20034;-71
2024/02/18 03:10:54;;;;;;;9.50;6.63;;;;;;;11.68;64.75;101531.88;4131500;28;20026;-71
2024/02/18 03:12:55;;;;;;;9.27;6.63;;;;;;;11.61;65.17;101522.59;4150952;28;20033;-71
2024/02/18 03:14:55;;;;;;;9.77;6.72;;;;;;;11.50;65.21;101525.22;4145867;28;20026;-71
2024/02/18 03:16:56;;;;;;;13.07;8.40;;;;;;;11.46;65.71;101515.72;4131199;28;20113;-71
2024/02/18 03:18:56;;;;;;;11.00;6.78;;;;;;;11.42;65.97;101522.28;4143243;28;20108;-71
2024/02/18 03:20:57;;;;;;;13.75;8.25;;;;;;;11.36;66.17;101512.88;4148421;28;20034;-71
2024/02/18 03:22:58;;;;;;;13.18;7.63;;;;;;;11.28;66.49;101513.44;4148824;28;20022;-72
2024/02/18 03:24:59;;;;;;;13.65;8.48;;;;;;;11.23;66.59;101523.63;4148401;28;20034;-71
2024/02/18 03:27:00;;;;;;;10.82;7.75;;;;;;;11.23;66.92;101512.94;4148954;28;20022;-71
2024/02/18 03:29:00;;;;;;;10.82;7.75;;;;;;;11.16;67.08;101517.00;4147722;28;20760;-71
2024/02/18 03:31:01;;;;;;;18.00;9.30;;;;;;;11.09;67.26;101516.63;4146847;28;20574;-71
2024/02/18 03:33:01;;;;;;;11.00;8.02;;;;;;;11.02;67.95;101510.84;4148203;28;20494;-71
2024/02/18 03:35:04;;;;;;;14.13;9.20;;;;;;;10.97;68.27;101517.50;4131967;28;20030;-71
2024/02/18 03:37:04;;;;;;;12.85;8.80;;;;;;;10.95;68.40;101514.09;4132272;28;20022;-71
2024/02/18 03:39:05;;;;;;;12.38;9.15;;;;;;;10.84;68.88;101522.91;4132128;28;20060;-71
2024/02/18 03:41:07;;;;;;;11.73;8.35;;;;;;;10.73;69.38;101527.19;4136775;28;20479;-71
2024/02/18 03:43:07;;;;;;;15.18;9.50;;;;;;;10.68;69.74;101523.97;4144858;28;20066;-71
2024/02/18 03:45:08;;;;;;;15.05;10.13;;;;;;;10.53;70.16;101525.06;4146329;28;20026;-71
2024/02/18 03:47:08;;;;;;;14.80;10.10;;;;;;;10.40;70.74;101527.75;4147105;28;20050;-71
2024/02/18 03:49:09;;;;;;;16.85;10.60;;;;;;;10.39;70.97;101532.22;4141293;28;20034;-71
2024/02/18 03:51:09;;;;;;;13.82;10.13;;;;;;;10.33;71.21;101521.09;4133488;28;20551;-71
2024/02/18 03:53:10;;;;;;;13.13;9.48;;;;;;;10.41;70.92;101521.44;4131828;28;20515;-71
2024/02/18 03:55:11;;;;;;;15.18;9.95;;;;;;;10.36;70.96;101519.06;4131795;28;20382;-71
2024/02/18 03:57:12;;;;;;;12.88;10.50;;;;;;;10.24;71.36;101511.91;4130649;28;20034;-71
2024/02/18 03:59:16;;;;;;;15.27;10.87;;;;;;;10.13;72.10;101518.84;4132079;28;20507;-71
2024/02/18 04:01:16;;;;;;;14.43;10.80;;;;;;;10.13;71.81;101513.50;4130240;28;20270;-71
2024/02/18 04:03:17;;;;;;;14.50;10.05;;;;;;;10.04;72.08;101527.50;4131422;28;20160;-71
2024/02/18 04:05:17;;;;;;;13.93;10.27;;;;;;;9.95;72.19;101520.97;4131443;28;20478;-71
2024/02/18 04:07:18;;;;;;;15.50;10.60;;;;;;;9.89;72.52;101526.72;4131506;28;20034;-71
2024/02/18 04:09:20;;;;;;;12.75;9.98;;;;;;;9.79;72.92;101531.84;4135584;28;20038;-70
2024/02/18 04:11:20;;;;;;;16.83;10.10;;;;;;;9.81;72.78;101521.91;4147780;28;20471;-71
2024/02/18 04:13:21;;;;;;;13.20;9.52;;;;;;;9.70;73.11;101521.78;4161817;28;20025;-71
2024/02/18 04:15:22;;;;;;;14.02;9.60;;;;;;;9.74;72.81;101523.28;4158219;28;20478;-71
2024/02/18 04:17:26;;;;;;;17.00;10.60;;;;;;;9.74;72.59;101523.28;4148100;28;20022;-71
2024/02/18 04:19:26;;;;;;;14.98;10.45;;;;;;;9.74;72.64;101519.75;4147499;28;20026;-71
2024/02/18 04:21:27;;;;;;;13.63;9.63;;;;;;;9.72;72.78;101516.31;4147942;28;20160;-71
2024/02/18 04:23:27;;;;;;;14.77;10.20;;;;;;;9.64;72.94;101522.16;4148290;28;20032;-72
2024/02/18 04:25:28;;;;;;;13.07;10.17;;;;;;;9.58;73.26;101517.25;4147844;28;20097;-71
2024/02/18 04:27:28;;;;;;;14.30;10.02;;;;;;;9.49;73.29;101514.25;4148109;28;20088;-72
2024/02/18 04:29:29;;;;;;;14.82;11.02;;;;;;;9.51;73.32;101515.00;4151925;28;20498;-72
2024/02/18 04:31:29;;;;;;;15.43;10.23;;;;;;;9.55;73.00;101512.09;4143995;28;20038;-71
2024/02/18 04:33:30;;;;;;;15.93;9.70;;;;;;;9.52;73.07;101524.72;4150989;28;20044;-71
2024/02/18 04:35:30;;;;;;;15.57;10.13;;;;;;;9.53;73.05;101512.22;4151818;28;20549;-71
2024/02/18 04:37:31;;;;;;;14.68;11.10;;;;;;;9.48;73.25;101506.34;4154315;28;20025;-71
2024/02/18 04:39:31;;;;;;;14.57;10.70;;;;;;;9.57;72.95;101510.19;4148415;28;20033;-71
2024/02/18 04:41:31;;;;;;;12.90;10.13;;;;;;;9.54;72.86;101505.94;4154523;28;20029;-71
2024/02/18 04:43:32;;;;;;;26.87;12.80;;;;;;;9.51;72.98;101504.31;4163962;28;20033;-71
2024/02/18 04:45:32;;;;;;;15.60;11.63;;;;;;;9.54;72.84;101505.94;4155540;28;20271;-71
2024/02/18 04:47:33;;;;;;;17.08;11.45;;;;;;;9.56;72.61;101506.69;4157066;28;20037;-71
2024/02/18 04:49:33;;;;;;;13.45;11.02;;;;;;;9.57;72.70;101500.38;4154082;28;20470;-71
2024/02/18 04:51:34;;;;;;;15.63;11.38;;;;;;;9.59;72.49;101497.59;4148789;28;20026;-71
2024/02/18 04:53:34;;;;;;;18.08;11.40;;;;;;;9.67;72.18;101501.47;4155479;28;20072;-71
2024/02/18 04:55:35;;;;;;;15.70;11.35;;;;;;;9.76;71.92;101505.34;4155211;28;20498;-71
2024/02/18 04:57:35;;;;;;;17.52;11.90;;;;;;;9.74;71.86;101512.59;4156052;28;20095;-71
2024/02/18 04:59:36;;;;;;;13.70;10.18;;;;;;;9.79;71.72;101504.25;4154424;28;20412;-71
2024/02/18 05:01:37;;;;;;;15.35;10.52;;;;;;;9.79;71.61;101498.91;4155805;28;20090;-71
2024/02/18 05:03:37;;;;;;;16.67;11.00;;;;;;;9.83;71.54;101498.59;4155510;28;20049;-71
2024/02/18 05:05:38;;;;;;;15.23;11.15;;;;;;;9.75;71.77;101497.44;4155221;28;20482;-71
2024/02/18 05:07:39;;;;;;;14.98;10.18;;;;;;;9.82;71.45;101496.91;4155616;28;20112;-71
2024/02/18 05:09:40;;;;;;;13.15;9.77;;;;;;;9.65;71.71;101499.84;4154779;28;20112;-71
2024/02/18 05:11:41;;;;;;;12.70;9.95;;;;;;;9.58;71.75;101502.09;4155971;28;20029;-71
2024/02/18 05:13:41;;;;;;;14.32;9.35;;;;;;;9.59;71.71;101497.59;4155456;28;20037;-71
2024/02/18 05:15:42;;;;;;;15.40;9.65;;;;;;;9.55;71.76;101493.41;4154944;28;20033;-71
2024/02/18 05:17:42;;;;;;;12.00;9.30;;;;;;;9.55;71.60;101490.75;4153795;28;20033;-71
2024/02/18 05:19:43;;;;;;;12.98;9.88;;;;;;;9.52;71.61;101490.03;4155142;28;20056;-71
2024/02/18 05:21:44;;;;;;;15.23;11.15;;;;;;;9.19;72.75;101495.78;4154030;28;20029;-71
2024/02/18 05:23:44;;;;;;;15.63;9.95;;;;;;;9.43;71.95;101487.97;4155533;28;20129;-71
2024/02/18 05:25:46;;;;;;;14.55;10.52;;;;;;;9.42;71.72;101491.59;4155462;28;20026;-71
2024/02/18 05:27:46;;;;;;;16.38;10.85;;;;;;;9.09;72.77;101484.84;4145127;28;20024;-71
2024/02/18 05:29:47;;;;;;;12.00;9.33;;;;;;;9.38;71.95;101482.06;4147372;28;20030;-71
2024/02/18 05:31:48;;;;;;;10.52;7.78;;;;;;;9.58;71.22;101494.09;4155766;28;20276;-71
2024/02/18 05:33:49;;;;;;;12.13;8.93;;;;;;;9.51;71.22;101490.97;4156840;28;20037;-71
2024/02/18 05:35:50;;;;;;;17.38;10.23;;;;;;;9.30;71.97;101487.06;4156033;28;20342;-71
2024/02/18 05:37:51;;;;;;;14.38;9.70;;;;;;;9.11;72.23;101482.09;4156548;28;20021;-71
2024/02/18 05:39:52;;;;;;;;;;;;;;;9.21;72.49;101476.03;4156720;28;20032;-71
2024/02/18 05:41:52;;;;;;;15.77;10.50;;;;;;;9.09;72.43;101481.31;4156544;28;20293;-71
2024/02/18 05:43:54;;;;;;;11.90;9.45;;;;;;;9.32;71.73;101474.47;4156648;28;20025;-71
2024/02/18 05:45:54;;;;;;;13.25;9.93;;;;;;;9.37;71.44;101475.00;4155673;28;20026;-71
2024/02/18 05:47:55;;;;;;;13.20;9.93;;;;;;;9.32;71.39;101467.31;4149546;28;20513;-72
2024/02/18 05:49:56;;;;;;;13.25;9.07;;;;;;;9.44;71.12;101473.66;4156985;28;20378;-71
2024/02/18 05:51:57;;;;;;;12.90;9.70;;;;;;;9.37;71.33;101467.00;4157687;28;20029;-71
2024/02/18 05:53:58;;;;;;;13.95;9.75;;;;;;;9.20;71.93;101474.31;4156558;28;20026;-70
2024/02/18 05:55:58;;;;;;;14.85;9.88;;;;;;;9.10;72.36;101470.53;4156810;28;20080;-70
2024/02/18 05:57:59;;;;;;;10.07;8.17;;;;;;;9.40;71.40;101468.63;4156052;28;20057;-71
2024/02/18 06:00:00;;;;;;;16.27;9.63;;;;;;;9.36;71.40;101462.63;4157236;28;20719;-71
2024/02/18 06:02:00;;;;;;;11.40;8.85;;;;;;;9.48;71.14;101453.78;4157269;28;20402;-71
2024/02/18 06:04:00;;;;;;;11.10;8.10;;;;;;;9.57;70.78;101456.81;4159018;28;20046;-71
2024/02/18 06:06:01;;;;;;;11.00;7.60;;;;;;;9.55;70.64;101458.72;4156544;28;20441;-70
2024/02/18 06:08:01;;;;;;;13.33;8.97;;;;;;;9.47;70.88;101456.56;4154887;28;20526;-71
2024/02/18 06:10:02;;;;;;;13.93;9.43;;;;;;;9.41;71.19;101457.84;4152679;28;20076;-71
2024/02/18 06:12:03;;;;;;;13.02;9.45;;;;;;;9.35;71.34;101458.25;4154733;28;20165;-70
2024/02/18 06:14:03;;;;;;;13.40;10.20;;;;;;;9.19;71.94;101453.94;4154769;28;20022;-71
2024/02/18 06:16:05;;;;;;;17.15;11.10;;;;;;;9.07;72.19;101453.88;4152546;28;20524;-71
2024/02/18 06:18:05;;;;;;;16.02;10.50;;;;;;;9.01;72.40;101452.47;4156444;28;20021;-71
2024/02/18 06:20:10;;;;;;;14.80;10.50;;;;;;;8.84;72.79;101465.09;4154623;28;20029;-70
2024/02/18 06:22:11;;;;;;;13.85;9.85;;;;;;;8.92;72.54;101466.41;4154306;28;20025;-70
2024/02/18 06:24:11;;;;;;;14.05;10.85;;;;;;;8.89;72.51;101457.63;4152934;28;20094;-71
2024/02/18 06:26:12;;;;;;;20.52;10.95;;;;;;;8.81;72.71;101459.94;4154056;28;20034;-71
2024/02/18 06:28:12;;;;;;;14.43;10.80;;;;;;;8.81;72.74;101459.94;4145291;28;20054;-71
2024/02/18 06:30:14;;;;;;;16.15;11.27;;;;;;;8.78;72.88;101464.63;4138602;28;20137;-71
2024/02/18 06:32:14;;;;;;;;;;;;;;;8.71;73.22;101459.69;4138422;28;20022;-71
2024/02/18 06:34:14;;;;;;;18.03;10.33;;;;;;;8.62;73.21;101459.41;4149563;28;19916;-71
2024/02/18 06:36:15;;;;;;;16.63;11.32;;;;;;;8.57;73.54;101463.25;4149036;28;20060;-70
2024/02/18 06:38:15;;;;;;;13.60;10.38;;;;;;;8.73;72.99;101463.13;4150057;28;20084;-71
2024/02/18 06:40:16;;;;;;;14.75;9.82;;;;;;;8.89;72.60;101446.97;4147459;28;20033;-70
2024/02/18 06:42:18;;;;;;;15.80;9.57;;;;;;;9.02;72.14;101451.50;4149951;28;20394;-70
2024/02/18 06:44:19;;;;;;;14.20;9.88;;;;;;;8.86;72.66;101452.53;4149750;28;20033;-71
2024/02/18 06:46:20;;;;;;;13.73;9.90;;;;;;;8.90;72.49;101461.19;4149804;28;20083;-71
2024/02/18 06:48:21;;;;;;;12.63;9.70;;;;;;;8.87;72.63;101458.69;4149557;28;20036;-71
2024/02/18 06:50:21;;;;;;;14.43;9.95;;;;;;;8.69;73.08;101455.44;4144790;28;20033;-71
2024/02/18 06:52:23;;;;;;;13.32;10.77;;;;;;;8.64;73.41;101463.72;4150133;28;20026;-71
2024/02/18 06:54:23;;;;;;;;;;;;;;;8.61;73.37;101468.34;4142968;28;20614;-70
2024/02/18 06:56:23;;;;;;;17.17;10.60;;;;;;;8.47;73.96;101458.53;4156397;28;20001;-71
2024/02/18 06:58:24;;;;;;;15.90;10.10;;;;;;;8.64;73.43;101452.19;4157714;28;20033;-71
2024/02/18 07:00:25;;;;;;;15.13;10.50;;;;;;;8.56;73.81;101464.19;4164028;28;20292;-71
2024/02/18 07:02:25;;;;;;;13.82;10.18;;;;;;;8.64;73.36;101452.19;4165052;28;20062;-71
2024/02/18 07:04:25;;;;;;;14.03;10.00;;;;;;;8.64;73.36;101453.06;4163012;28;20034;-70
2024/02/18 07:06:26;;;;;;;15.73;10.77;;;;;;;8.60;73.89;101453.34;4163505;28;20756;-71
2024/02/18 07:08:26;;;;;;;16.30;10.47;;;;;;;8.72;73.31;101444.53;4164106;28;20076;-71
2024/02/18 07:10:28;;;;;;;12.95;10.32;;;;;;;8.63;73.56;101450.47;4162361;28;20038;-70
2024/02/18 07:12:29;;;;;;;15.35;11.23;;;;;;;8.66;73.59;101452.94;4163944;28;20026;-72
2024/02/18 07:14:29;;;;;;;16.88;10.38;;;;;;;8.86;72.85;101441.84;4154995;28;20033;-71
2024/02/18 07:16:30;;;;;;;13.48;10.43;;;;;;;9.09;72.14;101439.47;4149355;28;20522;-71
2024/02/18 07:18:30;;;;;;;15.43;10.93;;;;;;;9.12;72.02;101439.28;4148802;28;20069;-71
2024/02/18 07:20:33;;;;;;;12.88;9.77;;;;;;;9.21;71.69;101441.34;4148774;28;20040;-71
2024/02/18 07:22:33;;;;;;;13.00;9.98;;;;;;;9.19;71.76;101443.25;4148751;28;20030;-71
2024/02/18 07:24:34;;;;;;;11.52;9.07;;;;;;;9.26;71.75;101435.69;4151130;28;20030;-70
2024/02/18 07:26:35;;;;;;;12.63;10.32;;;;;;;9.30;71.45;101437.22;4149208;28;20026;-70
2024/02/18 07:28:36;;;;;;;16.05;11.55;;;;;;;9.13;72.11;101441.00;4149712;28;20037;-71
2024/02/18 07:30:36;;;;;;;15.95;12.02;;;;;;;9.06;72.46;101442.38;4149201;28;20030;-71
2024/02/18 07:32:36;;;;;;;14.32;10.80;;;;;;;9.09;72.39;101435.97;4150418;28;20133;-70
2024/02/18 07:34:37;;;;;;;14.70;11.50;;;;;;;9.14;72.18;101440.03;4150060;28;20171;-71
2024/02/18 07:36:38;;;;;;;16.30;11.38;;;;;;;9.08;72.49;101440.44;4148476;28;20269;-71
2024/02/18 07:38:39;;;;;;;16.92;12.32;;;;;;;9.02;72.79;101441.69;4148906;28;20478;-71
2024/02/18 07:40:39;;;;;;;19.93;14.17;;;;;;;9.05;72.74;101440.66;4147122;28;20107;-71
2024/02/18 07:42:40;;;;;;;15.30;11.70;;;;;;;9.22;72.36;101442.19;4148819;28;20268;-71
2024/02/18 07:44:44;;;;;;;12.23;10.00;;;;;;;9.63;71.06;101437.72;4146701;28;20104;-71
2024/02/18 07:46:46;;;;;;;13.55;10.73;;;;;;;9.79;70.53;101435.69;4148710;28;20061;-71
2024/02/18 07:48:49;;;;;;;17.60;11.63;;;;;;;9.89;70.19;101429.72;4138784;28;20103;-71
2024/02/18 07:50:49;;;;;;;16.23;12.07;;;;;;;9.94;70.18;101432.91;4147624;28;20097;-71
2024/02/18 07:52:49;;;;;;;15.07;11.82;;;;;;;9.65;71.11;101438.44;4148901;28;20033;-71
2024/02/18 07:54:50;;;;;;;15.10;11.23;;;;;;;9.76;70.76;101430.56;4148492;28;20435;-70
2024/02/18 07:56:51;;;;;;;16.10;11.50;;;;;;;9.82;70.60;101440.81;4148817;28;20269;-70
2024/02/18 07:58:51;;;;;;;18.38;11.75;;;;;;;9.80;70.57;101440.06;4149270;28;20269;-70
2024/02/18 08:00:52;;;;;;;17.17;11.98;;;;;;;9.79;70.71;101434.81;4143372;28;20049;-71
2024/02/18 08:02:53;;;;;;;18.10;11.90;;;;;;;9.87;70.41;101436.97;4154676;28;20464;-71
2024/02/18 08:04:53;;;;;;;18.38;13.15;;;;;;;9.71;71.21;101432.69;4140781;28;20105;-70
2024/02/18 08:06:54;;;;;;;14.07;11.25;;;;;;;9.89;70.66;101429.72;4147701;28;20025;-70
2024/02/18 08:08:54;;;;;;;16.80;11.77;;;;;;;9.75;71.01;101439.53;4148090;28;20022;-71
2024/02/18 08:10:55;;;;;;;15.10;11.25;;;;;;;9.85;70.60;101421.06;4155935;28;20075;-71
2024/02/18 08:12:55;;;;;;;17.75;11.95;;;;;;;9.85;70.67;101421.06;4136535;28;20030;-71
2024/02/18 08:14:56;;;;;;;15.90;11.77;;;;;;;9.96;70.27;101425.66;4154318;28;20021;-71
2024/02/18 08:16:56;;;;;;;15.50;11.75;;;;;;;10.02;70.08;101430.56;4134530;28;20041;-71
2024/02/18 08:18:57;;;;;;;14.65;11.10;;;;;;;10.12;69.92;101422.75;4133165;28;20030;-71
2024/02/18 08:20:57;;;;;;;13.98;9.70;;;;;;;10.17;69.88;101425.94;4132855;28;20037;-71
2024/02/18 08:22:58;;;;;;;14.07;11.50;;;;;;;10.23;69.65;101405.97;4131791;28;20150;-70
2024/02/18 08:24:58;;;;;;;16.30;11.30;;;;;;;10.45;69.27;101406.16;4131480;28;20383;-71
2024/02/18 08:27:00;;;;;;;20.45;11.35;;;;;;;10.65;68.79;101403.00;4134343;28;20568;-71
2024/02/18 08:29:00;;;;;;;13.85;9.90;;;;;;;10.79;68.38;101399.31;4142316;28;20030;-71
2024/02/18 08:31:01;;;;;;;12.98;10.55;;;;;;;10.70;68.60;101393.66;4151412;28;20033;-71
2024/02/18 08:33:02;;;;;;;16.52;11.63;;;;;;;10.70;68.81;101395.50;4161393;28;20034;-71
2024/02/18 08:35:02;;;;;;;18.67;11.40;;;;;;;10.75;68.67;101386.19;4163783;28;20859;-71
2024/02/18 08:37:03;;;;;;;14.88;10.95;;;;;;;10.87;68.56;101389.75;4163366;28;20021;-70
2024/02/18 08:39:03;;;;;;;13.32;10.65;;;;;;;10.98;68.32;101388.94;4164275;28;20033;-71
2024/02/18 08:41:05;;;;;;;14.60;11.90;;;;;;;10.87;68.58;101392.44;4163843;28;20044;-70
2024/02/18 08:43:06;;;;;;;16.77;11.10;;;;;;;11.14;67.77;101390.50;4164613;28;20021;-71
2024/02/18 08:45:08;;;;;;;16.70;11.52;;;;;;;10.90;68.35;101388.66;4164595;28;20492;-71
2024/02/18 08:47:08;;;;;;;15.75;11.43;;;;;;;10.99;68.27;101390.66;4165092;28;20061;-71
2024/02/18 08:49:09;;;;;;;16.08;11.38;;;;;;;11.08;68.02;101387.28;4163777;28;20025;-71
2024/02/18 08:51:10;;;;;;;17.48;11.52;;;;;;;11.13;67.80;101386.94;4162198;28;20026;-71
2024/02/18 08:53:10;;;;;;;14.00;11.20;;;;;;;10.91;68.31;101379.69;4162626;28;20040;-71
2024/02/18 08:55:11;;;;;;;14.07;10.93;;;;;;;11.01;68.05;101377.16;4163930;28;20025;-72
2024/02/18 08:57:11;;;;;;;17.17;11.95;;;;;;;11.05;67.98;101370.63;4164899;28;20033;-71
2024/02/18 08:59:12;;;;;;;15.07;11.48;;;;;;;11.12;67.75;101377.22;4162647;28;20367;-71
2024/02/18 09:01:12;;;;;;;16.38;11.30;;;;;;;11.34;67.16;101375.59;4163427;28;20367;-71
2024/02/18 09:03:13;;;;;;;13.98;9.40;;;;;;;11.61;66.41;101369.94;4163489;28;20056;-71
2024/02/18 09:05:13;;;;;;;11.93;8.73;;;;;;;11.67;66.24;101358.72;4163455;28;20061;-71
2024/02/18 09:07:14;;;;;;;11.80;8.97;;;;;;;11.82;65.52;101345.09;4163689;28;20529;-71
2024/02/18 09:09:14;;;;;;;9.80;7.97;;;;;;;11.98;65.21;101348.31;4163960;28;20402;-71
2024/02/18 09:11:14;;;;;;;12.68;9.98;;;;;;;11.78;65.54;101352.53;4164991;28;20029;-71
2024/02/18 09:13:15;;;;;;;11.55;8.85;;;;;;;12.00;64.89;101346.34;4166801;28;20025;-70
2024/02/18 09:15:16;;;;;;;11.80;8.95;;;;;;;12.08;64.56;101343.06;4162982;28;20064;-71
2024/02/18 09:17:17;;;;;;;13.30;9.38;;;;;;;12.13;64.30;101340.88;4164006;28;20033;-71
2024/02/18 09:19:17;;;;;;;;;;;;;;;12.04;63.60;101338.94;4163195;28;20037;-71